VOZ989 YSSY-YBBN
Flight info
| Callsign | VOZ989 |
|---|---|
| Flight time | 1h 15m |
| Altitude | 37000 |
| Route | OLSEM Y193 BANDA H252 BN |
| Aircraft | B738/M-SDE2E3FGHIRWXY/LB1 |
Departure
| Time | 2026-05-05 09:18 |
|---|---|
| Airport | Sydney Kingsford Smith International Airport (YSSY) |
Arrival
| Time | 2026-05-05 10:33 |
|---|---|
| Airport | Brisbane International Airport (YBBN) |
| Time | Latitude | Longitude | Altitude | Speed | Heading |
|---|---|---|---|---|---|
| 2026-05-05 08:29 | -33.93523 | 151.17920 | 29 ft | 0 kts | 100° |
| 2026-05-05 09:03 | -33.93522 | 151.17912 | 29 ft | 2 kts | 99° |
| 2026-05-05 09:04 | -33.93519 | 151.17889 | 29 ft | 3 kts | 99° |
| 2026-05-05 09:04 | -33.93515 | 151.17865 | 29 ft | 3 kts | 109° |
| 2026-05-05 09:04 | -33.93507 | 151.17847 | 29 ft | 3 kts | 150° |
| 2026-05-05 09:04 | -33.93499 | 151.17844 | 29 ft | 0 kts | 190° |
| 2026-05-05 09:05 | -33.93511 | 151.17841 | 29 ft | 3 kts | 190° |
| 2026-05-05 09:05 | -33.93531 | 151.17837 | 29 ft | 3 kts | 190° |
| 2026-05-05 09:05 | -33.93551 | 151.17833 | 29 ft | 3 kts | 190° |
| 2026-05-05 09:05 | -33.93571 | 151.17829 | 29 ft | 3 kts | 190° |
| 2026-05-05 09:06 | -33.93591 | 151.17824 | 29 ft | 3 kts | 190° |
| 2026-05-05 09:06 | -33.93606 | 151.17821 | 29 ft | 1 kts | 190° |
| 2026-05-05 09:06 | -33.93607 | 151.17821 | 29 ft | 0 kts | 190° |
| 2026-05-05 09:10 | -33.93609 | 151.17821 | 29 ft | 1 kts | 190° |
| 2026-05-05 09:10 | -33.93641 | 151.17813 | 29 ft | 7 kts | 192° |
| 2026-05-05 09:10 | -33.93701 | 151.17796 | 29 ft | 10 kts | 194° |
| 2026-05-05 09:10 | -33.93778 | 151.17772 | 29 ft | 12 kts | 194° |
| 2026-05-05 09:11 | -33.93858 | 151.17768 | 29 ft | 12 kts | 168° |
| 2026-05-05 09:11 | -33.93936 | 151.17789 | 28 ft | 11 kts | 167° |
| 2026-05-05 09:11 | -33.94011 | 151.17808 | 28 ft | 11 kts | 168° |
| 2026-05-05 09:11 | -33.94085 | 151.17828 | 28 ft | 11 kts | 168° |
| 2026-05-05 09:12 | -33.94156 | 151.17846 | 29 ft | 10 kts | 168° |
| 2026-05-05 09:12 | -33.94226 | 151.17863 | 29 ft | 10 kts | 168° |
| 2026-05-05 09:12 | -33.94298 | 151.17882 | 29 ft | 12 kts | 168° |
| 2026-05-05 09:12 | -33.94396 | 151.17907 | 29 ft | 16 kts | 168° |
| 2026-05-05 09:13 | -33.94508 | 151.17884 | 29 ft | 16 kts | 186° |
| 2026-05-05 09:13 | -33.94617 | 151.17907 | 29 ft | 16 kts | 167° |
| 2026-05-05 09:13 | -33.94723 | 151.17934 | 29 ft | 16 kts | 168° |
| 2026-05-05 09:13 | -33.94836 | 151.17962 | 29 ft | 18 kts | 168° |
| 2026-05-05 09:14 | -33.94958 | 151.17994 | 29 ft | 15 kts | 168° |
| 2026-05-05 09:14 | -33.95041 | 151.18015 | 29 ft | 11 kts | 168° |
| 2026-05-05 09:14 | -33.95098 | 151.18069 | 29 ft | 12 kts | 107° |
| 2026-05-05 09:14 | -33.95085 | 151.18183 | 29 ft | 16 kts | 78° |
| 2026-05-05 09:15 | -33.95062 | 151.18314 | 29 ft | 13 kts | 78° |
| 2026-05-05 09:15 | -33.95052 | 151.18366 | 29 ft | 0 kts | 78° |
| 2026-05-05 09:16 | -33.95052 | 151.18367 | 29 ft | 0 kts | 78° |
| 2026-05-05 09:16 | -33.95042 | 151.18423 | 29 ft | 12 kts | 78° |
| 2026-05-05 09:16 | -33.95023 | 151.18528 | 29 ft | 13 kts | 78° |
| 2026-05-05 09:17 | -33.95005 | 151.18631 | 29 ft | 12 kts | 78° |
| 2026-05-05 09:17 | -33.94988 | 151.18725 | 27 ft | 10 kts | 78° |
| 2026-05-05 09:17 | -33.94991 | 151.18814 | 26 ft | 9 kts | 117° |
| 2026-05-05 09:17 | -33.95044 | 151.18849 | 26 ft | 9 kts | 166° |
| 2026-05-05 09:18 | -33.95255 | 151.18905 | 22 ft | 73 kts | 168° |
| 2026-05-05 09:18 | -33.96047 | 151.19109 | 39 ft | 156 kts | 168° |
| 2026-05-05 09:18 | -33.97233 | 151.19439 | 721 ft | 180 kts | 167° |
| 2026-05-05 09:18 | -33.98368 | 151.19847 | 2266 ft | 161 kts | 153° |
| 2026-05-05 09:19 | -33.99173 | 151.20831 | 3261 ft | 181 kts | 121° |
| 2026-05-05 09:19 | -33.99814 | 151.22242 | 3847 ft | 200 kts | 122° |
| 2026-05-05 09:19 | -34.00523 | 151.23708 | 4456 ft | 203 kts | 124° |
| 2026-05-05 09:19 | -34.01283 | 151.25158 | 5033 ft | 207 kts | 135° |
| 2026-05-05 09:20 | -34.02409 | 151.26253 | 5552 ft | 211 kts | 146° |
| 2026-05-05 09:20 | -34.03598 | 151.27350 | 6063 ft | 219 kts | 145° |
| 2026-05-05 09:20 | -34.04818 | 151.28506 | 6583 ft | 226 kts | 144° |
| 2026-05-05 09:20 | -34.06049 | 151.29694 | 7060 ft | 226 kts | 144° |
| 2026-05-05 09:21 | -34.07275 | 151.30887 | 7549 ft | 228 kts | 143° |
| 2026-05-05 09:21 | -34.08514 | 151.32097 | 8045 ft | 231 kts | 143° |
| 2026-05-05 09:21 | -34.09768 | 151.33323 | 8548 ft | 233 kts | 143° |
| 2026-05-05 09:21 | -34.10777 | 151.34859 | 9038 ft | 240 kts | 112° |
| 2026-05-05 09:22 | -34.10940 | 151.36838 | 9542 ft | 241 kts | 77° |
| 2026-05-05 09:22 | -34.10159 | 151.38586 | 10060 ft | 238 kts | 39° |
| 2026-05-05 09:22 | -34.08748 | 151.39574 | 10567 ft | 236 kts | 20° |
| 2026-05-05 09:22 | -34.07209 | 151.40325 | 11023 ft | 243 kts | 18° |
| 2026-05-05 09:23 | -34.05610 | 151.41073 | 11485 ft | 251 kts | 18° |
| 2026-05-05 09:23 | -34.03981 | 151.41833 | 11955 ft | 250 kts | 19° |
| 2026-05-05 09:23 | -34.02388 | 151.42582 | 12443 ft | 249 kts | 19° |
| 2026-05-05 09:23 | -34.00716 | 151.43369 | 12716 ft | 271 kts | 19° |
| 2026-05-05 09:24 | -33.98883 | 151.44233 | 12943 ft | 295 kts | 19° |
| 2026-05-05 09:24 | -33.96889 | 151.45178 | 13165 ft | 319 kts | 19° |
| 2026-05-05 09:24 | -33.94775 | 151.46186 | 13686 ft | 332 kts | 20° |
| 2026-05-05 09:24 | -33.92616 | 151.47219 | 14395 ft | 336 kts | 20° |
| 2026-05-05 09:25 | -33.90441 | 151.48262 | 15184 ft | 336 kts | 20° |
| 2026-05-05 09:25 | -33.88260 | 151.49306 | 15940 ft | 339 kts | 20° |
| 2026-05-05 09:25 | -33.86062 | 151.50358 | 16669 ft | 341 kts | 20° |
| 2026-05-05 09:25 | -33.83844 | 151.51419 | 17394 ft | 345 kts | 19° |
| 2026-05-05 09:26 | -33.81613 | 151.52484 | 18127 ft | 347 kts | 19° |
| 2026-05-05 09:26 | -33.79358 | 151.53562 | 18808 ft | 350 kts | 19° |
| 2026-05-05 09:26 | -33.77085 | 151.54646 | 19445 ft | 352 kts | 19° |
| 2026-05-05 09:26 | -33.74798 | 151.55737 | 20053 ft | 355 kts | 19° |
| 2026-05-05 09:27 | -33.72491 | 151.56837 | 20661 ft | 358 kts | 19° |
| 2026-05-05 09:27 | -33.70162 | 151.57946 | 21273 ft | 361 kts | 18° |
| 2026-05-05 09:27 | -33.67819 | 151.59061 | 21881 ft | 364 kts | 18° |
| 2026-05-05 09:27 | -33.65456 | 151.60197 | 22480 ft | 368 kts | 20° |
| 2026-05-05 09:28 | -33.63181 | 151.61659 | 23048 ft | 375 kts | 29° |
| 2026-05-05 09:28 | -33.60994 | 151.63397 | 23627 ft | 379 kts | 30° |
| 2026-05-05 09:28 | -33.58804 | 151.65185 | 24115 ft | 382 kts | 30° |
| 2026-05-05 09:28 | -33.56595 | 151.66977 | 24606 ft | 384 kts | 29° |
| 2026-05-05 09:29 | -33.54370 | 151.68754 | 25109 ft | 386 kts | 28° |
| 2026-05-05 09:29 | -33.52124 | 151.70530 | 25596 ft | 387 kts | 27° |
| 2026-05-05 09:29 | -33.49823 | 151.72197 | 26066 ft | 385 kts | 20° |
| 2026-05-05 09:29 | -33.47390 | 151.73368 | 26531 ft | 379 kts | 9° |
| 2026-05-05 09:30 | -33.44850 | 151.74163 | 27045 ft | 378 kts | 7° |
| 2026-05-05 09:30 | -33.42295 | 151.74918 | 27531 ft | 379 kts | 7° |
| 2026-05-05 09:30 | -33.39738 | 151.75698 | 28018 ft | 380 kts | 7° |
| 2026-05-05 09:30 | -33.37172 | 151.76502 | 28503 ft | 381 kts | 7° |
| 2026-05-05 09:31 | -33.34607 | 151.77322 | 29003 ft | 382 kts | 7° |
| 2026-05-05 09:31 | -33.32039 | 151.78151 | 29469 ft | 383 kts | 7° |
| 2026-05-05 09:31 | -33.29460 | 151.78986 | 29923 ft | 384 kts | 6° |
| 2026-05-05 09:31 | -33.26873 | 151.79824 | 30327 ft | 386 kts | 6° |
| 2026-05-05 09:32 | -33.24276 | 151.80663 | 30667 ft | 387 kts | 6° |
| 2026-05-05 09:32 | -33.21670 | 151.81505 | 31008 ft | 389 kts | 6° |
| 2026-05-05 09:32 | -33.19050 | 151.82350 | 31316 ft | 391 kts | 6° |
| 2026-05-05 09:32 | -33.16417 | 151.83198 | 31632 ft | 393 kts | 6° |
| 2026-05-05 09:33 | -33.13775 | 151.84048 | 31947 ft | 394 kts | 6° |
| 2026-05-05 09:33 | -33.11120 | 151.84902 | 32243 ft | 396 kts | 6° |
| 2026-05-05 09:33 | -33.08455 | 151.85759 | 32533 ft | 398 kts | 6° |
| 2026-05-05 09:33 | -33.05774 | 151.86620 | 32821 ft | 400 kts | 6° |
| 2026-05-05 09:34 | -33.03083 | 151.87484 | 33101 ft | 401 kts | 6° |
| 2026-05-05 09:34 | -33.00382 | 151.88350 | 33374 ft | 403 kts | 5° |
| 2026-05-05 09:34 | -32.97670 | 151.89220 | 33644 ft | 404 kts | 5° |
| 2026-05-05 09:34 | -32.94948 | 151.90093 | 33904 ft | 406 kts | 5° |
| 2026-05-05 09:35 | -32.92213 | 151.90969 | 34151 ft | 408 kts | 5° |
| 2026-05-05 09:35 | -32.86711 | 151.92729 | 34553 ft | 411 kts | 5° |
| 2026-05-05 09:35 | -32.83941 | 151.93614 | 34727 ft | 414 kts | 5° |
| 2026-05-05 09:36 | -32.81153 | 151.94504 | 34910 ft | 416 kts | 5° |
| 2026-05-05 09:36 | -32.78353 | 151.95398 | 35110 ft | 417 kts | 5° |
| 2026-05-05 09:36 | -32.76496 | 151.95990 | 35236 ft | 418 kts | 5° |
| 2026-05-05 09:36 | -32.73680 | 151.96889 | 35408 ft | 420 kts | 5° |
| 2026-05-05 09:37 | -32.70851 | 151.97790 | 35588 ft | 422 kts | 5° |
| 2026-05-05 09:37 | -32.68012 | 151.98695 | 35769 ft | 423 kts | 5° |
| 2026-05-05 09:37 | -32.65164 | 151.99601 | 35944 ft | 425 kts | 5° |
| 2026-05-05 09:37 | -32.62312 | 152.00509 | 36181 ft | 425 kts | 5° |
| 2026-05-05 09:38 | -32.59462 | 152.01417 | 36456 ft | 423 kts | 5° |
| 2026-05-05 09:38 | -32.56619 | 152.02322 | 36712 ft | 423 kts | 5° |
| 2026-05-05 09:38 | -32.53779 | 152.03225 | 36925 ft | 423 kts | 5° |
| 2026-05-05 09:38 | -32.50940 | 152.04125 | 37129 ft | 422 kts | 5° |
| 2026-05-05 09:39 | -32.45256 | 152.05926 | 37168 ft | 423 kts | 5° |
| 2026-05-05 09:39 | -32.39585 | 152.07721 | 37177 ft | 421 kts | 5° |
| 2026-05-05 09:40 | -32.33918 | 152.09512 | 37181 ft | 422 kts | 5° |
| 2026-05-05 09:40 | -32.28246 | 152.11301 | 37175 ft | 422 kts | 5° |
| 2026-05-05 09:41 | -32.22573 | 152.13089 | 37182 ft | 422 kts | 4° |
| 2026-05-05 09:41 | -32.16904 | 152.14875 | 37167 ft | 422 kts | 4° |
| 2026-05-05 09:42 | -32.11235 | 152.16657 | 37164 ft | 421 kts | 4° |
| 2026-05-05 09:42 | -32.05607 | 152.18424 | 37179 ft | 421 kts | 4° |
| 2026-05-05 09:43 | -31.99951 | 152.20199 | 37176 ft | 420 kts | 4° |
| 2026-05-05 09:43 | -31.94297 | 152.21970 | 37177 ft | 421 kts | 4° |
| 2026-05-05 09:44 | -31.88636 | 152.23740 | 37174 ft | 421 kts | 4° |
| 2026-05-05 09:44 | -31.82977 | 152.25508 | 37175 ft | 421 kts | 4° |
| 2026-05-05 09:45 | -31.77321 | 152.27273 | 37172 ft | 421 kts | 4° |
| 2026-05-05 09:45 | -31.71658 | 152.29038 | 37174 ft | 421 kts | 4° |
| 2026-05-05 09:46 | -31.65999 | 152.30799 | 37175 ft | 421 kts | 3° |
| 2026-05-05 09:46 | -31.60341 | 152.32558 | 37185 ft | 421 kts | 3° |
| 2026-05-05 09:47 | -31.54675 | 152.34316 | 37179 ft | 422 kts | 3° |
| 2026-05-05 09:47 | -31.48996 | 152.36076 | 37185 ft | 423 kts | 3° |
| 2026-05-05 09:48 | -31.43296 | 152.37840 | 37174 ft | 424 kts | 3° |
| 2026-05-05 09:48 | -31.37579 | 152.39608 | 37179 ft | 426 kts | 3° |
| 2026-05-05 09:49 | -31.31848 | 152.41379 | 37169 ft | 426 kts | 3° |
| 2026-05-05 09:49 | -31.26109 | 152.43149 | 37166 ft | 428 kts | 3° |
| 2026-05-05 09:50 | -31.20339 | 152.44926 | 37185 ft | 430 kts | 3° |
| 2026-05-05 09:50 | -31.14543 | 152.46710 | 37185 ft | 432 kts | 4° |
| 2026-05-05 09:51 | -31.08714 | 152.48501 | 37182 ft | 434 kts | 4° |
| 2026-05-05 09:51 | -31.02852 | 152.50301 | 37173 ft | 437 kts | 4° |
| 2026-05-05 09:52 | -30.96956 | 152.52109 | 37176 ft | 439 kts | 4° |
| 2026-05-05 09:52 | -30.91047 | 152.53921 | 37175 ft | 439 kts | 4° |
| 2026-05-05 09:53 | -30.85194 | 152.55713 | 37176 ft | 437 kts | 4° |
| 2026-05-05 09:53 | -30.79335 | 152.57505 | 37169 ft | 433 kts | 4° |
| 2026-05-05 09:54 | -30.73557 | 152.59537 | 37167 ft | 433 kts | 6° |
| 2026-05-05 09:54 | -30.67848 | 152.61677 | 37166 ft | 429 kts | 6° |
| 2026-05-05 09:55 | -30.62176 | 152.63774 | 37153 ft | 426 kts | 5° |
| 2026-05-05 09:55 | -30.56541 | 152.65828 | 37166 ft | 423 kts | 5° |
| 2026-05-05 09:56 | -30.50932 | 152.67858 | 37166 ft | 421 kts | 5° |
| 2026-05-05 09:56 | -30.45346 | 152.69876 | 37178 ft | 420 kts | 5° |
| 2026-05-05 09:57 | -30.39760 | 152.71892 | 37162 ft | 421 kts | 5° |
| 2026-05-05 09:57 | -30.34172 | 152.73908 | 37176 ft | 420 kts | 5° |
| 2026-05-05 09:58 | -30.28618 | 152.75910 | 37170 ft | 421 kts | 5° |
| 2026-05-05 09:58 | -30.23003 | 152.77930 | 37172 ft | 424 kts | 5° |
| 2026-05-05 09:59 | -30.17358 | 152.79960 | 37169 ft | 426 kts | 5° |
| 2026-05-05 09:59 | -30.11686 | 152.81998 | 37155 ft | 428 kts | 5° |
| 2026-05-05 10:00 | -30.06000 | 152.84040 | 37165 ft | 428 kts | 5° |
| 2026-05-05 10:00 | -30.00318 | 152.86078 | 37154 ft | 427 kts | 5° |
| 2026-05-05 10:01 | -29.94647 | 152.88110 | 37150 ft | 426 kts | 5° |
| 2026-05-05 10:01 | -29.89000 | 152.90126 | 37152 ft | 424 kts | 4° |
| 2026-05-05 10:02 | -29.83368 | 152.92123 | 37139 ft | 422 kts | 4° |
| 2026-05-05 10:02 | -29.77761 | 152.94109 | 37138 ft | 421 kts | 4° |
| 2026-05-05 10:03 | -29.72180 | 152.96085 | 37141 ft | 419 kts | 4° |
| 2026-05-05 10:03 | -29.66621 | 152.98050 | 37134 ft | 417 kts | 4° |
| 2026-05-05 10:04 | -29.61115 | 152.99995 | 37136 ft | 416 kts | 4° |
| 2026-05-05 10:04 | -29.55587 | 153.01944 | 37138 ft | 415 kts | 4° |
| 2026-05-05 10:05 | -29.50070 | 153.03888 | 37136 ft | 415 kts | 4° |
| 2026-05-05 10:05 | -29.44553 | 153.05829 | 37140 ft | 415 kts | 4° |
| 2026-05-05 10:06 | -29.39028 | 153.07772 | 37135 ft | 415 kts | 4° |
| 2026-05-05 10:06 | -29.33501 | 153.09714 | 37127 ft | 415 kts | 4° |
| 2026-05-05 10:07 | -29.27975 | 153.11653 | 37139 ft | 416 kts | 4° |
| 2026-05-05 10:07 | -29.22438 | 153.13601 | 37121 ft | 417 kts | 4° |
| 2026-05-05 10:08 | -29.19647 | 153.14579 | 36673 ft | 422 kts | 4° |
| 2026-05-05 10:08 | -29.16849 | 153.15565 | 36149 ft | 419 kts | 5° |
| 2026-05-05 10:08 | -29.14066 | 153.16549 | 35592 ft | 418 kts | 5° |
| 2026-05-05 10:08 | -29.11288 | 153.17527 | 34985 ft | 418 kts | 5° |
| 2026-05-05 10:09 | -29.08509 | 153.18505 | 34377 ft | 418 kts | 5° |
| 2026-05-05 10:09 | -29.05725 | 153.19483 | 33691 ft | 418 kts | 6° |
| 2026-05-05 10:09 | -29.02941 | 153.20460 | 32977 ft | 419 kts | 6° |
| 2026-05-05 10:09 | -29.00154 | 153.21438 | 32285 ft | 419 kts | 6° |
| 2026-05-05 10:10 | -28.97360 | 153.22417 | 31603 ft | 420 kts | 6° |
| 2026-05-05 10:10 | -28.94562 | 153.23397 | 30898 ft | 422 kts | 6° |
| 2026-05-05 10:10 | -28.91747 | 153.24381 | 30158 ft | 425 kts | 6° |
| 2026-05-05 10:10 | -28.88911 | 153.25371 | 29301 ft | 428 kts | 6° |
| 2026-05-05 10:11 | -28.86067 | 153.26366 | 28645 ft | 426 kts | 7° |
| 2026-05-05 10:11 | -28.83255 | 153.27355 | 28084 ft | 422 kts | 7° |
| 2026-05-05 10:11 | -28.80462 | 153.28336 | 27516 ft | 418 kts | 7° |
| 2026-05-05 10:11 | -28.77692 | 153.29307 | 26976 ft | 415 kts | 8° |
| 2026-05-05 10:12 | -28.74945 | 153.30267 | 26438 ft | 411 kts | 8° |
| 2026-05-05 10:12 | -28.72253 | 153.31207 | 25913 ft | 409 kts | 8° |
| 2026-05-05 10:12 | -28.69507 | 153.32164 | 25377 ft | 406 kts | 9° |
| 2026-05-05 10:12 | -28.66844 | 153.33090 | 24835 ft | 405 kts | 9° |
| 2026-05-05 10:13 | -28.64152 | 153.34027 | 24295 ft | 404 kts | 9° |
| 2026-05-05 10:13 | -28.61468 | 153.34960 | 23749 ft | 403 kts | 10° |
| 2026-05-05 10:13 | -28.58790 | 153.35891 | 23116 ft | 402 kts | 10° |
| 2026-05-05 10:13 | -28.56121 | 153.36820 | 22549 ft | 399 kts | 11° |
| 2026-05-05 10:14 | -28.53478 | 153.37739 | 22011 ft | 396 kts | 11° |
| 2026-05-05 10:14 | -28.50846 | 153.38655 | 21463 ft | 394 kts | 11° |
| 2026-05-05 10:14 | -28.48234 | 153.39562 | 20942 ft | 391 kts | 11° |
| 2026-05-05 10:14 | -28.45644 | 153.40461 | 20419 ft | 388 kts | 11° |
| 2026-05-05 10:15 | -28.43068 | 153.41354 | 19901 ft | 386 kts | 11° |
| 2026-05-05 10:15 | -28.40503 | 153.42243 | 19360 ft | 385 kts | 12° |
| 2026-05-05 10:15 | -28.37950 | 153.43128 | 18845 ft | 383 kts | 12° |
| 2026-05-05 10:15 | -28.35408 | 153.44007 | 18292 ft | 382 kts | 12° |
| 2026-05-05 10:16 | -28.32871 | 153.44885 | 17705 ft | 380 kts | 13° |
| 2026-05-05 10:16 | -28.30354 | 153.45756 | 17165 ft | 377 kts | 13° |
| 2026-05-05 10:16 | -28.27852 | 153.46622 | 16643 ft | 374 kts | 13° |
| 2026-05-05 10:16 | -28.25372 | 153.47480 | 16131 ft | 372 kts | 14° |
| 2026-05-05 10:17 | -28.22907 | 153.48332 | 15628 ft | 369 kts | 14° |
| 2026-05-05 10:17 | -28.20460 | 153.49176 | 15132 ft | 367 kts | 14° |
| 2026-05-05 10:17 | -28.17966 | 153.49634 | 14611 ft | 362 kts | 356° |
| 2026-05-05 10:17 | -28.15516 | 153.49136 | 14098 ft | 358 kts | 340° |
| 2026-05-05 10:18 | -28.13310 | 153.47844 | 13426 ft | 359 kts | 327° |
| 2026-05-05 10:18 | -28.11233 | 153.46279 | 12822 ft | 359 kts | 325° |
| 2026-05-05 10:18 | -28.09191 | 153.44693 | 12503 ft | 351 kts | 325° |
| 2026-05-05 10:18 | -28.07214 | 153.43164 | 12396 ft | 337 kts | 325° |
| 2026-05-05 10:19 | -28.05295 | 153.41694 | 12220 ft | 327 kts | 325° |
| 2026-05-05 10:19 | -28.03440 | 153.40287 | 12132 ft | 315 kts | 326° |
| 2026-05-05 10:19 | -28.01647 | 153.38934 | 12053 ft | 304 kts | 326° |
| 2026-05-05 10:19 | -27.99913 | 153.37631 | 11929 ft | 295 kts | 326° |
| 2026-05-05 10:20 | -27.98220 | 153.36359 | 11741 ft | 289 kts | 326° |
| 2026-05-05 10:20 | -27.96560 | 153.35113 | 11512 ft | 285 kts | 325° |
| 2026-05-05 10:20 | -27.94973 | 153.33770 | 11148 ft | 286 kts | 320° |
| 2026-05-05 10:20 | -27.93440 | 153.32334 | 10834 ft | 286 kts | 319° |
| 2026-05-05 10:21 | -27.91917 | 153.30890 | 10525 ft | 285 kts | 319° |
| 2026-05-05 10:21 | -27.90391 | 153.29454 | 10221 ft | 286 kts | 319° |
| 2026-05-05 10:21 | -27.88858 | 153.28026 | 9904 ft | 286 kts | 320° |
| 2026-05-05 10:21 | -27.87322 | 153.26605 | 9593 ft | 285 kts | 320° |
| 2026-05-05 10:22 | -27.85791 | 153.25191 | 9296 ft | 283 kts | 320° |
| 2026-05-05 10:22 | -27.84255 | 153.23800 | 8986 ft | 283 kts | 322° |
| 2026-05-05 10:22 | -27.82683 | 153.22467 | 8677 ft | 282 kts | 322° |
| 2026-05-05 10:22 | -27.81118 | 153.21154 | 8334 ft | 278 kts | 323° |
| 2026-05-05 10:23 | -27.79568 | 153.19850 | 7845 ft | 278 kts | 322° |
| 2026-05-05 10:23 | -27.78542 | 153.18980 | 7517 ft | 279 kts | 321° |
| 2026-05-05 10:23 | -27.77180 | 153.17444 | 7066 ft | 276 kts | 308° |
| 2026-05-05 10:23 | -27.76019 | 153.15740 | 6776 ft | 271 kts | 306° |
| 2026-05-05 10:24 | -27.74895 | 153.14029 | 6569 ft | 272 kts | 304° |
| 2026-05-05 10:24 | -27.73285 | 153.11836 | 6282 ft | 274 kts | 311° |
| 2026-05-05 10:24 | -27.72017 | 153.10253 | 6072 ft | 269 kts | 311° |
| 2026-05-05 10:24 | -27.71179 | 153.09209 | 5922 ft | 263 kts | 311° |
| 2026-05-05 10:25 | -27.69982 | 153.07705 | 5724 ft | 253 kts | 310° |
| 2026-05-05 10:25 | -27.68835 | 153.06256 | 5539 ft | 243 kts | 310° |
| 2026-05-05 10:25 | -27.67734 | 153.04864 | 5381 ft | 232 kts | 310° |
| 2026-05-05 10:25 | -27.66690 | 153.03540 | 5301 ft | 218 kts | 310° |
| 2026-05-05 10:26 | -27.65716 | 153.02306 | 5301 ft | 209 kts | 310° |
| 2026-05-05 10:26 | -27.64752 | 153.01082 | 5207 ft | 208 kts | 310° |
| 2026-05-05 10:26 | -27.63774 | 152.99894 | 5072 ft | 206 kts | 320° |
| 2026-05-05 10:26 | -27.62473 | 152.99261 | 4971 ft | 206 kts | 346° |
| 2026-05-05 10:27 | -27.61064 | 152.98845 | 4755 ft | 210 kts | 345° |
| 2026-05-05 10:27 | -27.59633 | 152.98735 | 4499 ft | 206 kts | 18° |
| 2026-05-05 10:27 | -27.58326 | 152.99316 | 4277 ft | 201 kts | 24° |
| 2026-05-05 10:27 | -27.57087 | 152.99933 | 4016 ft | 189 kts | 27° |
| 2026-05-05 10:28 | -27.55938 | 153.00560 | 3773 ft | 179 kts | 28° |
| 2026-05-05 10:28 | -27.54857 | 153.01172 | 3558 ft | 175 kts | 28° |
| 2026-05-05 10:28 | -27.53780 | 153.01788 | 3334 ft | 170 kts | 29° |
| 2026-05-05 10:28 | -27.52758 | 153.02375 | 3114 ft | 161 kts | 29° |
| 2026-05-05 10:29 | -27.51778 | 153.02938 | 2965 ft | 156 kts | 28° |
| 2026-05-05 10:29 | -27.50844 | 153.03475 | 2735 ft | 147 kts | 28° |
| 2026-05-05 10:29 | -27.49952 | 153.03988 | 2534 ft | 143 kts | 28° |
| 2026-05-05 10:29 | -27.49063 | 153.04498 | 2351 ft | 143 kts | 28° |
| 2026-05-05 10:30 | -27.48178 | 153.05007 | 2161 ft | 142 kts | 28° |
| 2026-05-05 10:30 | -27.47303 | 153.05510 | 1977 ft | 140 kts | 29° |
| 2026-05-05 10:30 | -27.46438 | 153.06007 | 1792 ft | 139 kts | 28° |
| 2026-05-05 10:30 | -27.45576 | 153.06502 | 1605 ft | 139 kts | 29° |
| 2026-05-05 10:31 | -27.44716 | 153.06997 | 1424 ft | 139 kts | 29° |
| 2026-05-05 10:31 | -27.43861 | 153.07488 | 1249 ft | 138 kts | 28° |
| 2026-05-05 10:31 | -27.43007 | 153.07979 | 1065 ft | 137 kts | 28° |
| 2026-05-05 10:31 | -27.42156 | 153.08468 | 885 ft | 137 kts | 28° |
| 2026-05-05 10:32 | -27.41301 | 153.08957 | 715 ft | 138 kts | 27° |
| 2026-05-05 10:32 | -27.40453 | 153.09447 | 556 ft | 136 kts | 29° |
| 2026-05-05 10:32 | -27.39604 | 153.09947 | 350 ft | 139 kts | 27° |
| 2026-05-05 10:32 | -27.38738 | 153.10433 | 169 ft | 138 kts | 28° |
| 2026-05-05 10:33 | -27.37895 | 153.10919 | 32 ft | 133 kts | 28° |
| 2026-05-05 10:33 | -27.37153 | 153.11344 | 18 ft | 101 kts | 27° |
| 2026-05-05 10:33 | -27.36663 | 153.11622 | 17 ft | 57 kts | 27° |
| 2026-05-05 10:33 | -27.36440 | 153.11770 | 19 ft | 26 kts | 41° |
| 2026-05-05 10:34 | -27.36350 | 153.11885 | 18 ft | 18 kts | 56° |
| 2026-05-05 10:34 | -27.36289 | 153.11990 | 20 ft | 12 kts | 56° |
| 2026-05-05 10:34 | -27.36266 | 153.12070 | 17 ft | 11 kts | 97° |
| 2026-05-05 10:34 | -27.36307 | 153.12134 | 20 ft | 10 kts | 162° |
| 2026-05-05 10:35 | -27.36374 | 153.12115 | 18 ft | 10 kts | 206° |
| 2026-05-05 10:35 | -27.36445 | 153.12075 | 17 ft | 13 kts | 207° |
| 2026-05-05 10:35 | -27.36537 | 153.12022 | 17 ft | 16 kts | 207° |
| 2026-05-05 10:35 | -27.36647 | 153.11958 | 17 ft | 19 kts | 207° |
| 2026-05-05 10:36 | -27.36775 | 153.11885 | 17 ft | 22 kts | 206° |
| 2026-05-05 10:36 | -27.36921 | 153.11802 | 17 ft | 23 kts | 207° |
| 2026-05-05 10:36 | -27.37062 | 153.11721 | 17 ft | 22 kts | 207° |
| 2026-05-05 10:36 | -27.37181 | 153.11652 | 17 ft | 15 kts | 207° |
| 2026-05-05 10:37 | -27.37263 | 153.11605 | 19 ft | 13 kts | 203° |
| 2026-05-05 10:37 | -27.37335 | 153.11638 | 17 ft | 12 kts | 121° |
| 2026-05-05 10:37 | -27.37375 | 153.11723 | 18 ft | 13 kts | 117° |
| 2026-05-05 10:37 | -27.37422 | 153.11826 | 17 ft | 17 kts | 117° |
| 2026-05-05 10:38 | -27.37484 | 153.11964 | 17 ft | 21 kts | 117° |
| 2026-05-05 10:38 | -27.37550 | 153.12110 | 17 ft | 21 kts | 117° |
| 2026-05-05 10:38 | -27.37616 | 153.12257 | 17 ft | 22 kts | 117° |
| 2026-05-05 10:38 | -27.37689 | 153.12418 | 18 ft | 23 kts | 117° |
| 2026-05-05 10:39 | -27.37760 | 153.12572 | 17 ft | 21 kts | 117° |
| 2026-05-05 10:39 | -27.37822 | 153.12708 | 17 ft | 17 kts | 117° |
| 2026-05-05 10:39 | -27.37868 | 153.12797 | 17 ft | 12 kts | 136° |
| 2026-05-05 10:39 | -27.37944 | 153.12794 | 18 ft | 12 kts | 206° |
| 2026-05-05 10:40 | -27.38024 | 153.12748 | 17 ft | 16 kts | 207° |
| 2026-05-05 10:40 | -27.38135 | 153.12685 | 17 ft | 19 kts | 206° |
| 2026-05-05 10:40 | -27.38249 | 153.12620 | 17 ft | 18 kts | 207° |
| 2026-05-05 10:40 | -27.38360 | 153.12557 | 17 ft | 17 kts | 207° |
| 2026-05-05 10:41 | -27.38471 | 153.12493 | 17 ft | 19 kts | 207° |
| 2026-05-05 10:41 | -27.38591 | 153.12424 | 17 ft | 20 kts | 207° |
| 2026-05-05 10:41 | -27.38722 | 153.12349 | 18 ft | 21 kts | 207° |
| 2026-05-05 10:41 | -27.38847 | 153.12278 | 17 ft | 18 kts | 207° |
| 2026-05-05 10:42 | -27.38966 | 153.12210 | 17 ft | 1 kts | 207° |
| 2026-05-05 10:42 | -27.38998 | 153.12192 | 17 ft | 10 kts | 207° |
| 2026-05-05 10:42 | -27.39036 | 153.12119 | 17 ft | 13 kts | 277° |
| 2026-05-05 10:43 | -27.39000 | 153.12030 | 17 ft | 12 kts | 304° |
| 2026-05-05 10:43 | -27.38939 | 153.12013 | 17 ft | 7 kts | 29° |
| 2026-05-05 10:43 | -27.38905 | 153.12051 | 19 ft | 7 kts | 47° |
| 2026-05-05 10:43 | -27.38871 | 153.12070 | 18 ft | 5 kts | 347° |
| 2026-05-05 10:44 | -27.38853 | 153.12041 | 17 ft | 4 kts | 294° |
| 2026-05-05 10:44 | -27.38847 | 153.12026 | 17 ft | 2 kts | 294° |
| 2026-05-05 10:44 | -27.38841 | 153.12012 | 17 ft | 2 kts | 294° |
| 2026-05-05 10:44 | -27.38840 | 153.12008 | 18 ft | 0 kts | 294° |